Time;durP1;ratioP1;P1;durP2;ratioP2;P2;SDS_P1;SDS_P2;PMS_P1;PMS_P2;Temp;Humidity;BMP_temperature;BMP_pressure;BME280_temperature;BME280_humidity;BME280_pressure;Samples;Min_cycle;Max_cycle;Signal;HPM_P1;HPM_P2
2021/12/30 00:01:44;;;;;;;7.13;1.75;;;13.80;88.30;;;;;;5032733;28;20128;-83
2021/12/30 00:04:11;;;;;;;8.93;2.00;;;13.70;88.40;;;;;;5032723;28;20124;-84
2021/12/30 00:06:40;;;;;;;8.90;2.85;;;13.80;88.40;;;;;;5032479;28;20063;-84
2021/12/30 00:09:10;;;;;;;5.32;2.65;;;13.80;88.40;;;;;;5031955;28;20512;-84
2021/12/30 00:11:38;;;;;;;9.75;3.10;;;13.80;88.40;;;;;;5033640;28;20052;-84
2021/12/30 00:14:05;;;;;;;10.20;3.50;;;13.80;88.50;;;;;;5032542;28;20052;-84
2021/12/30 00:16:32;;;;;;;6.55;2.97;;;13.80;88.50;;;;;;5032650;28;20410;-83
2021/12/30 00:19:00;;;;;;;9.45;3.42;;;13.90;88.50;;;;;;5033916;28;20071;-84
2021/12/30 00:21:27;;;;;;;10.50;3.30;;;13.90;88.60;;;;;;5032914;28;20410;-84
2021/12/30 00:23:54;;;;;;;8.77;3.45;;;13.90;88.60;;;;;;5031761;28;20055;-84
2021/12/30 00:26:21;;;;;;;12.52;3.67;;;13.90;88.60;;;;;;5032149;28;20056;-84
2021/12/30 00:28:48;;;;;;;7.13;3.47;;;13.90;88.60;;;;;;5032427;28;20072;-84
2021/12/30 00:31:15;;;;;;;8.23;4.13;;;13.90;88.70;;;;;;5032395;28;20047;-83
2021/12/30 00:33:43;;;;;;;8.43;3.95;;;13.90;88.70;;;;;;5032562;28;20124;-83
2021/12/30 00:36:13;;;;;;;7.03;3.58;;;13.90;88.70;;;;;;5031694;28;20056;-84
2021/12/30 00:38:43;;;;;;;7.85;3.40;;;13.90;88.70;;;;;;5035560;28;20103;-83
2021/12/30 00:41:11;;;;;;;9.68;3.72;;;13.90;88.70;;;;;;5035600;28;20053;-84
2021/12/30 00:43:39;;;;;;;6.63;3.20;;;13.90;88.70;;;;;;5036004;28;20045;-84
2021/12/30 00:46:08;;;;;;;6.60;2.90;;;14.00;88.70;;;;;;5035754;28;20045;-83
2021/12/30 00:48:36;;;;;;;5.85;2.60;;;14.00;88.80;;;;;;5035838;28;20068;-84
2021/12/30 00:51:03;;;;;;;4.13;2.20;;;14.00;88.70;;;;;;5034965;28;20498;-84
2021/12/30 00:53:30;;;;;;;3.90;2.20;;;14.00;88.80;;;;;;5035547;28;20510;-84
2021/12/30 00:55:58;;;;;;;4.32;2.25;;;14.00;88.80;;;;;;5035094;28;20048;-83
2021/12/30 00:58:25;;;;;;;7.05;2.45;;;14.00;88.80;;;;;;5035667;28;20056;-84
2021/12/30 01:00:54;;;;;;;5.68;2.10;;;14.00;88.80;;;;;;5035623;28;20048;-84
2021/12/30 01:03:22;;;;;;;5.20;2.00;;;14.00;88.80;;;;;;5034960;28;20107;-84
2021/12/30 01:05:49;;;;;;;3.75;1.70;;;14.00;88.80;;;;;;5034823;28;20049;-84
2021/12/30 01:08:17;;;;;;;4.20;2.30;;;14.10;88.80;;;;;;5035279;28;20049;-84
2021/12/30 01:10:45;;;;;;;4.15;2.35;;;14.00;88.80;;;;;;5034989;28;20048;-84
2021/12/30 01:13:22;;;;;;;4.80;2.22;;;14.00;88.80;;;;;;5035349;28;20053;-84
2021/12/30 01:15:59;;;;;;;4.15;2.42;;;14.00;88.80;;;;;;5020698;28;20502;-84
2021/12/30 01:21:06;;;;;;;3.67;2.13;;;14.10;88.80;;;;;;5033942;28;20045;-84
2021/12/30 01:23:33;;;;;;;3.85;2.50;;;14.10;88.80;;;;;;5035172;28;20049;-84
2021/12/30 01:26:01;;;;;;;10.02;2.50;;;14.10;88.80;;;;;;5034474;28;20052;-83
2021/12/30 01:28:28;;;;;;;3.95;2.15;;;14.10;88.80;;;;;;5035025;28;20045;-84
2021/12/30 01:30:56;;;;;;;6.07;2.40;;;14.10;88.80;;;;;;5035172;28;20060;-84
2021/12/30 01:33:26;;;;;;;3.40;2.00;;;14.10;88.80;;;;;;5033791;28;20084;-83
2021/12/30 01:35:53;;;;;;;3.40;1.92;;;14.10;88.80;;;;;;5032134;28;20060;-84
2021/12/30 01:38:20;;;;;;;3.67;1.98;;;14.10;88.80;;;;;;5034606;28;20112;-84
2021/12/30 01:40:50;;;;;;;3.65;1.67;;;14.10;88.80;;;;;;5034764;28;20045;-84
2021/12/30 01:43:18;;;;;;;3.22;1.63;;;14.10;88.80;;;;;;5034675;28;20056;-84
2021/12/30 01:45:46;;;;;;;3.45;1.50;;;14.10;88.80;;;;;;5034853;28;20043;-84
2021/12/30 01:48:14;;;;;;;5.30;1.50;;;14.10;88.80;;;;;;5033384;28;20057;-83
2021/12/30 01:50:43;;;;;;;2.15;1.20;;;14.10;88.80;;;;;;5034242;28;20532;-84
2021/12/30 01:53:11;;;;;;;1.90;1.10;;;14.10;88.80;;;;;;5034112;28;20055;-84
2021/12/30 01:55:40;;;;;;;2.53;1.10;;;14.10;88.80;;;;;;5034528;28;20037;-84
2021/12/30 01:58:08;;;;;;;2.03;1.00;;;14.10;88.90;;;;;;5034492;28;20055;-83
2021/12/30 02:00:38;;;;;;;1.83;1.08;;;14.10;88.90;;;;;;5034644;28;20037;-83
2021/12/30 02:03:05;;;;;;;2.15;1.00;;;14.10;88.90;;;;;;5033557;28;20413;-84
2021/12/30 02:05:33;;;;;;;2.33;1.10;;;14.10;88.90;;;;;;5034080;28;20053;-84
2021/12/30 02:08:00;;;;;;;4.88;1.33;;;14.20;88.90;;;;;;5033879;28;20056;-84
2021/12/30 02:10:28;;;;;;;2.05;1.00;;;14.10;88.90;;;;;;5034348;28;20045;-84
2021/12/30 02:12:55;;;;;;;1.52;0.80;;;14.10;88.90;;;;;;5034312;28;20053;-84
2021/12/30 02:15:23;;;;;;;1.73;0.90;;;14.10;88.90;;;;;;5033521;28;20049;-83
2021/12/30 02:17:51;;;;;;;3.33;0.90;;;14.10;88.90;;;;;;5035533;28;20498;-84
2021/12/30 02:20:45;;;;;;;2.53;1.10;;;14.10;88.90;;;;;;5034011;28;20041;-83
2021/12/30 02:23:27;;;;;;;1.23;0.65;;;14.10;88.90;;;;;;5033678;28;20046;-84
2021/12/30 02:25:57;;;;;;;2.47;0.80;;;14.10;88.90;;;;;;5033848;28;20053;-84
2021/12/30 02:28:28;;;;;;;2.42;0.80;;;14.10;88.90;;;;;;5033867;28;20052;-84
2021/12/30 02:30:57;;;;;;;1.65;0.80;;;14.20;88.90;;;;;;5049287;28;20055;-84
2021/12/30 02:33:25;;;;;;;1.85;0.70;;;14.10;88.90;;;;;;5033725;28;20045;-84
2021/12/30 02:35:53;;;;;;;1.92;0.82;;;14.10;88.90;;;;;;5030997;28;20052;-84
2021/12/30 02:38:22;;;;;;;0.75;0.50;;;14.20;88.90;;;;;;5033323;28;20044;-84
2021/12/30 02:40:53;;;;;;;3.72;0.90;;;14.10;88.90;;;;;;5033639;28;20045;-84
2021/12/30 02:43:25;;;;;;;2.10;0.80;;;14.20;88.90;;;;;;5033522;28;20044;-84
2021/12/30 02:45:54;;;;;;;3.15;0.80;;;14.10;88.90;;;;;;5032484;28;20045;-84
2021/12/30 02:48:23;;;;;;;5.50;1.00;;;14.20;88.90;;;;;;5033101;28;20501;-84
2021/12/30 02:50:54;;;;;;;1.17;0.68;;;14.20;88.90;;;;;;5030162;28;20053;-84
2021/12/30 02:53:22;;;;;;;1.00;0.70;;;14.10;88.90;;;;;;5033411;28;20045;-84
2021/12/30 02:55:50;;;;;;;1.90;0.70;;;14.20;88.90;;;;;;5033361;28;20048;-84
2021/12/30 02:58:18;;;;;;;0.68;0.60;;;14.20;88.90;;;;;;5033351;28;20053;-83
2021/12/30 03:00:47;;;;;;;1.48;0.70;;;14.20;88.90;;;;;;5032858;28;20047;-84
2021/12/30 03:03:21;;;;;;;2.15;0.73;;;14.20;88.90;;;;;;5032613;28;20568;-84
2021/12/30 03:05:54;;;;;;;1.55;0.75;;;14.20;88.90;;;;;;5033870;28;20053;-84
2021/12/30 03:08:22;;;;;;;2.38;0.90;;;14.20;88.90;;;;;;5033320;28;20135;-84
2021/12/30 03:10:50;;;;;;;2.20;0.80;;;14.10;88.90;;;;;;5033137;28;20525;-84
2021/12/30 03:13:25;;;;;;;3.47;0.90;;;14.20;88.90;;;;;;5033108;28;20045;-84
2021/12/30 03:15:52;;;;;;;3.17;0.80;;;14.10;88.90;;;;;;5033108;28;20429;-84
2021/12/30 03:18:19;;;;;;;2.70;0.70;;;14.10;88.90;;;;;;5032394;28;20060;-84
2021/12/30 03:20:46;;;;;;;3.30;0.60;;;14.10;88.90;;;;;;5032524;28;20049;-84
2021/12/30 03:23:13;;;;;;;1.50;0.75;;;14.10;88.90;;;;;;5032898;28;20634;-84
2021/12/30 03:25:40;;;;;;;1.40;0.77;;;14.10;88.90;;;;;;5033028;28;20128;-84
2021/12/30 03:28:07;;;;;;;1.52;0.68;;;14.10;88.80;;;;;;5033074;28;20045;-84
2021/12/30 03:30:34;;;;;;;2.97;0.90;;;14.10;88.90;;;;;;5033195;28;20065;-83
2021/12/30 03:33:01;;;;;;;2.55;0.80;;;14.10;88.90;;;;;;5032143;28;20053;-84
2021/12/30 03:35:28;;;;;;;2.20;0.80;;;14.10;88.80;;;;;;5032630;28;20049;-84
2021/12/30 03:37:56;;;;;;;3.15;0.80;;;14.20;88.80;;;;;;5032936;28;20049;-84
2021/12/30 03:40:24;;;;;;;1.60;0.70;;;14.10;88.80;;;;;;5032918;28;20128;-84
2021/12/30 03:42:51;;;;;;;3.88;0.65;;;14.10;88.80;;;;;;5033024;28;20049;-84
2021/12/30 03:45:19;;;;;;;1.83;0.70;;;14.20;88.80;;;;;;5032170;28;20060;-84
2021/12/30 03:47:48;;;;;;;2.63;0.68;;;14.20;88.80;;;;;;5032661;28;20049;-84
2021/12/30 03:50:22;;;;;;;2.53;0.82;;;14.10;88.80;;;;;;5032411;28;20049;-84
2021/12/30 03:52:52;;;;;;;1.95;0.80;;;14.10;88.80;;;;;;5032674;28;20045;-84
2021/12/30 03:55:21;;;;;;;1.48;0.70;;;14.10;88.80;;;;;;5032745;28;20416;-84
2021/12/30 03:57:51;;;;;;;1.10;0.70;;;14.10;88.80;;;;;;5032899;28;20510;-84
2021/12/30 04:00:20;;;;;;;1.48;0.70;;;14.20;88.80;;;;;;5031774;28;20535;-84
2021/12/30 04:02:47;;;;;;;3.88;0.80;;;14.10;88.80;;;;;;5032205;28;20532;-84
2021/12/30 04:05:15;;;;;;;2.88;1.05;;;14.10;88.80;;;;;;5032229;28;20068;-84
2021/12/30 04:07:42;;;;;;;2.88;1.00;;;14.10;88.80;;;;;;5032730;28;20045;-84
2021/12/30 04:10:12;;;;;;;3.20;1.10;;;14.10;88.80;;;;;;5032736;28;20056;-84
2021/12/30 04:12:40;;;;;;;2.75;1.50;;;14.10;88.80;;;;;;5020862;28;20045;-84
2021/12/30 04:15:08;;;;;;;3.70;1.85;;;14.10;88.80;;;;;;5031542;28;20049;-83
2021/12/30 04:17:36;;;;;;;3.20;1.70;;;14.10;88.80;;;;;;5036339;28;20531;-84
2021/12/30 04:20:09;;;;;;;4.90;1.90;;;14.10;88.80;;;;;;5036013;28;20045;-84
2021/12/30 04:22:37;;;;;;;3.33;1.88;;;14.10;88.80;;;;;;5036324;28;20046;-84
2021/12/30 04:25:07;;;;;;;4.25;1.83;;;14.10;88.80;;;;;;5036282;28;20060;-84
2021/12/30 04:27:35;;;;;;;3.95;2.13;;;14.10;88.80;;;;;;5036197;28;20425;-83
2021/12/30 04:30:05;;;;;;;3.55;1.90;;;14.10;88.80;;;;;;5035312;28;20057;-84
2021/12/30 04:32:32;;;;;;;6.28;2.22;;;14.10;88.80;;;;;;5035646;28;20042;-83
2021/12/30 04:34:59;;;;;;;7.20;2.20;;;14.10;88.80;;;;;;5035969;28;20045;-83
2021/12/30 04:37:26;;;;;;;5.20;2.25;;;14.10;88.80;;;;;;5035860;28;20415;-83
2021/12/30 04:39:53;;;;;;;5.10;2.20;;;14.10;88.80;;;;;;5035871;28;20125;-84
2021/12/30 04:42:20;;;;;;;3.75;2.03;;;14.10;88.80;;;;;;5035371;28;20047;-84
2021/12/30 04:44:48;;;;;;;4.82;2.00;;;14.10;88.80;;;;;;5035367;28;20049;-84
2021/12/30 04:47:16;;;;;;;5.72;2.10;;;14.10;88.80;;;;;;5035426;28;20063;-84
2021/12/30 04:49:43;;;;;;;5.05;2.10;;;14.10;88.80;;;;;;5035795;28;20520;-84
2021/12/30 04:52:10;;;;;;;5.28;2.40;;;14.10;88.80;;;;;;5035676;28;20045;-84
2021/12/30 04:54:37;;;;;;;5.50;2.17;;;14.10;88.80;;;;;;5035608;28;20045;-84
2021/12/30 04:57:04;;;;;;;5.25;2.40;;;14.10;88.80;;;;;;5034936;28;20052;-84
2021/12/30 04:59:31;;;;;;;5.90;2.10;;;14.10;88.80;;;;;;5035477;28;20041;-84
2021/12/30 05:01:58;;;;;;;8.63;2.25;;;14.10;88.80;;;;;;5035229;28;20446;-83
2021/12/30 05:04:26;;;;;;;5.63;2.13;;;14.10;88.70;;;;;;5035272;28;20049;-84
2021/12/30 05:06:53;;;;;;;7.63;2.50;;;14.10;88.80;;;;;;5035473;28;20055;-84
2021/12/30 05:09:20;;;;;;;8.80;2.60;;;14.10;88.70;;;;;;5034832;28;20042;-84
2021/12/30 05:11:47;;;;;;;10.52;3.17;;;14.10;88.70;;;;;;5034997;28;20053;-84
2021/12/30 05:14:14;;;;;;;7.93;2.97;;;14.10;88.70;;;;;;5035196;28;20045;-84
2021/12/30 05:16:41;;;;;;;14.20;3.83;;;14.10;88.70;;;;;;5034864;28;20453;-83
2021/12/30 05:19:08;;;;;;;9.50;3.70;;;14.10;88.70;;;;;;5035370;28;20418;-84
2021/12/30 05:21:36;;;;;;;13.13;4.60;;;14.10;88.70;;;;;;5035363;28;20056;-84
2021/12/30 05:24:06;;;;;;;9.82;4.28;;;14.10;88.70;;;;;;5033641;28;20115;-84
2021/12/30 05:26:33;;;;;;;10.35;4.63;;;14.10;88.70;;;;;;5035049;28;20052;-84
2021/12/30 05:29:03;;;;;;;11.23;5.38;;;14.10;88.70;;;;;;5034997;28;20045;-84
2021/12/30 05:31:30;;;;;;;10.27;5.03;;;14.10;88.70;;;;;;5034835;28;20041;-84
2021/12/30 05:33:58;;;;;;;13.02;5.05;;;14.10;88.70;;;;;;5034847;28;20538;-84
2021/12/30 05:36:25;;;;;;;12.98;4.63;;;14.10;88.70;;;;;;5035039;28;20049;-84
2021/12/30 05:38:52;;;;;;;15.43;5.22;;;14.10;88.60;;;;;;5032102;28;20050;-84
2021/12/30 05:41:22;;;;;;;14.50;5.28;;;14.10;88.70;;;;;;5034751;28;20103;-83
2021/12/30 05:43:49;;;;;;;11.73;5.57;;;14.10;88.60;;;;;;5034767;28;20049;-84
2021/12/30 05:46:16;;;;;;;13.43;5.03;;;14.10;88.60;;;;;;5034490;28;20045;-84
2021/12/30 05:48:43;;;;;;;9.80;4.82;;;14.10;88.60;;;;;;5034764;28;20501;-83
2021/12/30 05:51:10;;;;;;;9.32;4.50;;;14.10;88.60;;;;;;5034010;28;20049;-84
2021/12/30 05:53:37;;;;;;;14.95;5.15;;;14.10;88.60;;;;;;5035874;28;20052;-84
2021/12/30 05:56:04;;;;;;;13.18;4.63;;;14.10;88.60;;;;;;5034431;28;20518;-84
2021/12/30 05:58:31;;;;;;;11.80;4.30;;;14.10;88.60;;;;;;5034395;28;20050;-84
2021/12/30 06:00:58;;;;;;;10.10;4.32;;;14.10;88.60;;;;;;5034234;28;20052;-84
2021/12/30 06:03:26;;;;;;;12.98;4.43;;;14.10;88.50;;;;;;5034297;28;20045;-84
2021/12/30 06:05:53;;;;;;;12.05;3.80;;;14.10;88.50;;;;;;5033501;28;20071;-84
2021/12/30 06:08:20;;;;;;;11.50;4.10;;;14.10;88.50;;;;;;5034236;28;20049;-84
2021/12/30 06:10:47;;;;;;;12.45;4.10;;;14.10;88.50;;;;;;5034272;28;20052;-84
2021/12/30 06:13:14;;;;;;;14.57;3.90;;;14.10;88.50;;;;;;5034194;28;20046;-84
2021/12/30 06:15:41;;;;;;;15.88;4.00;;;14.00;88.40;;;;;;5018258;28;20049;-84
2021/12/30 06:18:08;;;;;;;16.48;4.07;;;14.00;88.40;;;;;;5029193;28;20047;-83
2021/12/30 06:20:35;;;;;;;17.23;4.70;;;14.00;88.40;;;;;;5034116;28;20045;-84
2021/12/30 06:23:02;;;;;;;12.10;4.15;;;14.00;88.40;;;;;;5033958;28;20129;-84
2021/12/30 06:25:29;;;;;;;10.57;3.50;;;14.00;88.40;;;;;;5033861;28;20045;-84
2021/12/30 06:27:56;;;;;;;13.20;4.07;;;14.00;88.30;;;;;;5034026;28;20037;-84
2021/12/30 06:30:23;;;;;;;12.82;3.97;;;14.00;88.30;;;;;;5033462;28;20175;-84
2021/12/30 06:32:50;;;;;;;16.55;4.10;;;14.00;88.30;;;;;;5032943;28;20053;-84
2021/12/30 06:35:17;;;;;;;9.00;3.53;;;14.00;88.30;;;;;;5032776;28;20049;-84
2021/12/30 06:37:45;;;;;;;17.98;4.03;;;14.00;88.30;;;;;;5033639;28;20042;-84
2021/12/30 06:40:13;;;;;;;14.77;4.15;;;14.00;88.30;;;;;;5033696;28;20425;-84
2021/12/30 06:42:42;;;;;;;10.93;4.22;;;14.00;88.30;;;;;;5018062;28;20497;-83
2021/12/30 06:45:12;;;;;;;11.05;3.72;;;13.90;88.20;;;;;;5028635;28;20056;-84
2021/12/30 06:47:44;;;;;;;15.50;3.83;;;13.90;88.20;;;;;;5033356;28;20049;-84
2021/12/30 06:50:14;;;;;;;13.52;3.78;;;13.90;88.20;;;;;;5033499;28;20048;-84
2021/12/30 06:52:43;;;;;;;12.25;3.55;;;13.90;88.20;;;;;;5033430;28;20049;-84
2021/12/30 06:55:10;;;;;;;15.30;3.38;;;13.90;88.20;;;;;;5033460;28;20049;-84
2021/12/30 06:57:38;;;;;;;7.43;3.50;;;13.90;88.10;;;;;;5033202;28;20051;-84
2021/12/30 07:00:08;;;;;;;15.57;3.88;;;13.90;88.10;;;;;;5032596;28;20413;-84
2021/12/30 07:02:36;;;;;;;11.25;3.55;;;13.90;88.10;;;;;;5033546;28;20045;-84
2021/12/30 07:05:04;;;;;;;14.82;3.50;;;13.90;88.00;;;;;;5033035;28;20499;-83
2021/12/30 07:07:31;;;;;;;11.88;3.40;;;13.90;88.00;;;;;;5033413;28;20048;-84
2021/12/30 07:09:58;;;;;;;10.52;3.30;;;13.90;88.00;;;;;;5033300;28;20049;-84
2021/12/30 07:12:26;;;;;;;13.05;3.22;;;13.90;87.90;;;;;;5033008;28;20048;-83
2021/12/30 07:14:53;;;;;;;11.45;3.40;;;13.80;87.90;;;;;;5030530;28;20056;-84
2021/12/30 07:17:20;;;;;;;13.13;3.55;;;13.90;87.90;;;;;;5032944;28;20402;-84
2021/12/30 07:19:47;;;;;;;13.02;2.78;;;13.80;87.90;;;;;;5033174;28;20549;-84
2021/12/30 07:22:14;;;;;;;16.90;3.03;;;13.80;87.90;;;;;;5033090;28;20037;-82
2021/12/30 07:25:02;;;;;;;11.45;3.33;;;13.80;87.90;;;;;;5020188;28;20514;-84
2021/12/30 07:27:30;;;;;;;11.52;2.72;;;13.70;87.80;;;;;;5032763;28;20052;-84
2021/12/30 07:29:58;;;;;;;18.67;2.83;;;13.80;87.80;;;;;;5032272;28;20053;-84
2021/12/30 07:32:26;;;;;;;11.50;2.55;;;13.70;87.80;;;;;;5033018;28;20041;-84
2021/12/30 07:34:55;;;;;;;11.55;2.65;;;13.70;87.80;;;;;;5032785;28;20045;-85
2021/12/30 07:37:21;;;;;;;7.53;2.50;;;13.70;87.80;;;;;;5032993;28;20536;-85
2021/12/30 07:39:49;;;;;;;10.70;4.38;;;13.70;87.80;;;;;;5032953;28;20045;-85
2021/12/30 07:42:16;;;;;;;9.13;2.85;;;13.70;87.80;;;;;;5031761;28;20514;-85
2021/12/30 07:44:43;;;;;;;15.20;3.25;;;13.70;87.80;;;;;;5035378;28;20049;-85
2021/12/30 07:47:18;;;;;;;10.95;2.50;;;13.70;87.80;;;;;;5036220;28;20441;-84
2021/12/30 07:49:46;;;;;;;8.23;2.55;;;13.70;87.80;;;;;;5038497;28;20080;-85
2021/12/30 07:52:13;;;;;;;13.48;3.03;;;13.70;87.80;;;;;;5036955;28;20044;-85
2021/12/30 07:54:43;;;;;;;11.02;2.70;;;13.70;87.80;;;;;;5021246;28;20118;-85
2021/12/30 07:57:12;;;;;;;9.88;2.40;;;13.70;87.80;;;;;;5032018;28;20107;-85
2021/12/30 07:59:39;;;;;;;13.27;2.80;;;13.70;87.80;;;;;;5033028;28;20060;-84
2021/12/30 08:02:07;;;;;;;12.95;3.10;;;13.70;87.70;;;;;;5034489;28;20049;-85
2021/12/30 08:04:35;;;;;;;9.25;2.78;;;13.70;87.80;;;;;;5035572;28;20577;-85
2021/12/30 08:07:02;;;;;;;15.90;3.13;;;13.70;87.70;;;;;;5036269;28;20505;-84
2021/12/30 08:09:29;;;;;;;11.50;3.15;;;13.70;87.70;;;;;;5036211;28;20049;-84
2021/12/30 08:11:59;;;;;;;14.13;3.17;;;13.70;87.70;;;;;;5034862;28;20045;-85
2021/12/30 08:14:29;;;;;;;14.18;3.17;;;13.70;87.70;;;;;;5035865;28;20053;-84
2021/12/30 08:16:56;;;;;;;12.80;3.13;;;13.70;87.70;;;;;;5036134;28;20045;-84
2021/12/30 08:19:23;;;;;;;8.85;2.55;;;13.70;87.70;;;;;;5035721;28;20103;-84
2021/12/30 08:21:51;;;;;;;9.52;3.28;;;13.70;87.70;;;;;;5036080;28;20453;-84
2021/12/30 08:24:18;;;;;;;12.65;2.80;;;13.70;87.70;;;;;;5035250;28;20045;-84
2021/12/30 08:27:05;;;;;;;12.20;2.80;;;13.70;87.70;;;;;;5034838;28;20037;-84
2021/12/30 08:29:33;;;;;;;12.23;3.03;;;13.70;87.70;;;;;;5035745;28;20051;-83
2021/12/30 08:32:00;;;;;;;12.02;3.00;;;13.70;87.70;;;;;;5035566;28;20037;-83
2021/12/30 08:34:27;;;;;;;16.10;3.55;;;13.70;87.70;;;;;;5035501;28;20049;-83
2021/12/30 08:36:54;;;;;;;11.93;3.08;;;13.70;87.70;;;;;;5035692;28;20537;-84
2021/12/30 08:39:21;;;;;;;13.55;3.58;;;13.70;87.70;;;;;;5034543;28;20057;-84
2021/12/30 08:41:49;;;;;;;17.83;3.97;;;13.70;87.70;;;;;;5035133;28;20045;-83
2021/12/30 08:44:16;;;;;;;12.10;3.40;;;13.70;87.70;;;;;;5035594;28;20053;-83
2021/12/30 08:46:43;;;;;;;13.10;3.22;;;13.70;87.70;;;;;;5035255;28;20053;-83
2021/12/30 08:49:11;;;;;;;11.80;3.42;;;13.70;87.70;;;;;;5035600;28;20577;-83
2021/12/30 08:51:39;;;;;;;14.40;3.55;;;13.70;87.70;;;;;;5035788;28;20048;-83
2021/12/30 08:54:07;;;;;;;26.23;4.10;;;13.70;87.70;;;;;;5033773;28;20087;-83
2021/12/30 08:56:34;;;;;;;16.27;4.70;;;13.60;87.70;;;;;;5035141;28;20052;-83
2021/12/30 08:59:01;;;;;;;19.85;4.22;;;13.70;87.70;;;;;;5033721;28;20410;-83
2021/12/30 09:01:28;;;;;;;15.55;4.07;;;13.70;87.70;;;;;;5035503;28;20037;-83
2021/12/30 09:03:56;;;;;;;17.90;4.30;;;13.70;87.70;;;;;;5035690;28;20046;-83
2021/12/30 09:06:24;;;;;;;13.13;4.55;;;13.70;87.70;;;;;;5035055;28;20054;-83
2021/12/30 09:08:51;;;;;;;13.15;4.30;;;13.70;87.70;;;;;;5034290;28;20056;-83
2021/12/30 09:11:19;;;;;;;15.20;4.85;;;13.70;87.80;;;;;;5035299;28;20049;-83
2021/12/30 09:13:46;;;;;;;15.23;4.35;;;13.70;87.80;;;;;;5035177;28;20045;-83
2021/12/30 09:16:13;;;;;;;17.75;5.07;;;13.70;87.80;;;;;;5035312;28;20045;-83
2021/12/30 09:18:40;;;;;;;13.85;4.32;;;13.70;87.80;;;;;;5019539;28;20045;-83
2021/12/30 09:21:07;;;;;;;13.27;3.70;;;13.70;87.80;;;;;;5030269;28;20068;-83
2021/12/30 09:23:34;;;;;;;15.35;3.95;;;13.70;87.80;;;;;;5034851;28;20461;-83
2021/12/30 09:26:01;;;;;;;13.18;4.30;;;13.70;87.90;;;;;;5035103;28;20102;-83
2021/12/30 09:28:28;;;;;;;17.08;4.07;;;13.70;87.90;;;;;;5035036;28;20061;-83
2021/12/30 09:30:55;;;;;;;13.07;3.67;;;13.70;87.90;;;;;;5035148;28;20053;-83
2021/12/30 09:33:23;;;;;;;11.23;3.72;;;13.70;87.90;;;;;;5034665;28;20128;-83
2021/12/30 09:35:50;;;;;;;11.60;3.75;;;13.70;87.90;;;;;;5034138;28;20053;-83
2021/12/30 09:38:18;;;;;;;11.73;3.92;;;13.70;87.90;;;;;;5034584;28;20396;-83
2021/12/30 09:40:45;;;;;;;13.10;3.80;;;13.80;87.90;;;;;;5034829;28;20045;-83
2021/12/30 09:43:14;;;;;;;11.52;4.20;;;13.80;87.90;;;;;;5034879;28;20060;-83
2021/12/30 09:45:42;;;;;;;12.57;4.43;;;13.80;87.90;;;;;;5019375;28;20049;-83
2021/12/30 09:48:13;;;;;;;16.75;5.28;;;13.80;87.90;;;;;;5029809;28;20042;-83
2021/12/30 09:50:46;;;;;;;14.13;4.75;;;13.80;88.00;;;;;;5034311;28;20053;-83
2021/12/30 09:53:17;;;;;;;14.55;4.40;;;13.80;88.00;;;;;;5034211;28;20045;-83
2021/12/30 09:55:44;;;;;;;16.90;5.60;;;13.80;88.00;;;;;;5034686;28;20049;-83
2021/12/30 09:58:11;;;;;;;14.48;5.07;;;13.80;88.00;;;;;;5034701;28;20052;-83
2021/12/30 10:00:39;;;;;;;16.98;5.22;;;13.80;88.00;;;;;;5034457;28;20057;-83
2021/12/30 10:03:07;;;;;;;16.70;5.90;;;13.90;88.10;;;;;;5033656;28;20064;-83
2021/12/30 10:05:38;;;;;;;24.58;6.40;;;13.90;88.00;;;;;;5034268;28;20065;-83
2021/12/30 10:08:26;;;;;;;16.90;5.68;;;13.90;88.00;;;;;;5033976;28;20049;-83
2021/12/30 10:10:56;;;;;;;19.85;6.00;;;13.90;88.00;;;;;;5034224;28;20045;-83
2021/12/30 10:13:31;;;;;;;18.25;5.72;;;13.90;88.00;;;;;;5034171;28;20131;-83
2021/12/30 10:16:01;;;;;;;28.67;6.13;;;13.90;88.00;;;;;;5034186;28;20049;-83
2021/12/30 10:18:57;;;;;;;15.63;6.10;;;13.90;88.00;;;;;;5034356;28;20277;-83
2021/12/30 10:21:26;;;;;;;22.38;6.50;;;13.90;88.00;;;;;;5031399;28;20053;-83
2021/12/30 10:23:56;;;;;;;27.77;6.28;;;13.90;88.00;;;;;;5031288;28;20387;-83
2021/12/30 10:26:24;;;;;;;16.58;5.55;;;13.90;88.00;;;;;;5033967;28;20052;-83
2021/12/30 10:29:02;;;;;;;23.40;7.10;;;13.90;88.00;;;;;;5033865;28;20045;-83
2021/12/30 10:31:32;;;;;;;19.17;5.72;;;13.90;88.00;;;;;;5033684;28;20049;-83
2021/12/30 10:34:09;;;;;;;19.52;6.03;;;13.90;88.00;;;;;;5033851;28;20052;-83
2021/12/30 10:36:46;;;;;;;22.95;6.60;;;13.90;88.00;;;;;;5033563;28;20045;-83
2021/12/30 10:39:15;;;;;;;17.83;6.03;;;13.90;88.00;;;;;;5029233;28;20045;-83
2021/12/30 10:41:43;;;;;;;22.08;6.40;;;13.90;88.00;;;;;;5033719;28;20053;-83
2021/12/30 10:44:10;;;;;;;26.83;5.60;;;14.00;88.00;;;;;;5033610;28;20046;-83
2021/12/30 10:46:37;;;;;;;22.55;5.35;;;13.90;87.90;;;;;;5033694;28;20049;-83
2021/12/30 10:49:24;;;;;;;17.13;5.97;;;14.00;87.90;;;;;;5033658;28;20573;-83
2021/12/30 10:51:55;;;;;;;22.88;6.65;;;14.00;87.90;;;;;;5019490;28;20037;-83
2021/12/30 10:54:28;;;;;;;24.98;6.60;;;14.00;87.90;;;;;;5033027;28;20052;-83
2021/12/30 10:56:56;;;;;;;23.77;6.30;;;14.00;87.90;;;;;;5031010;28;20060;-83
2021/12/30 10:59:32;;;;;;;21.30;6.38;;;14.00;87.90;;;;;;5033430;28;20516;-83
2021/12/30 11:02:00;;;;;;;23.35;6.57;;;14.10;87.90;;;;;;5033328;28;20042;-83
2021/12/30 11:04:38;;;;;;;19.48;6.78;;;14.00;87.80;;;;;;5033022;28;20049;-84
2021/12/30 11:07:08;;;;;;;20.20;6.72;;;14.10;87.80;;;;;;5033568;28;20125;-84
2021/12/30 11:09:44;;;;;;;18.38;6.45;;;14.10;87.80;;;;;;5033378;28;20049;-83
2021/12/30 11:12:11;;;;;;;20.45;5.75;;;14.00;87.70;;;;;;5028553;28;20413;-83
2021/12/30 11:14:38;;;;;;;17.98;5.68;;;14.10;87.80;;;;;;5032187;28;20056;-83
2021/12/30 11:17:16;;;;;;;21.48;6.13;;;14.00;87.70;;;;;;5031938;28;20514;-83
2021/12/30 11:19:58;;;;;;;20.63;5.47;;;14.10;87.70;;;;;;5032266;28;20073;-83
2021/12/30 11:22:30;;;;;;;22.17;5.57;;;14.10;87.70;;;;;;5032548;28;20050;-84
2021/12/30 11:25:00;;;;;;;19.33;5.40;;;14.10;87.70;;;;;;5032384;28;20421;-83
2021/12/30 11:27:28;;;;;;;22.15;4.90;;;14.10;87.60;;;;;;5032842;28;20060;-83
2021/12/30 11:30:04;;;;;;;19.30;5.38;;;14.10;87.60;;;;;;5030229;28;20045;-84
2021/12/30 11:32:33;;;;;;;21.52;4.93;;;14.10;87.60;;;;;;5032540;28;20051;-84
2021/12/30 11:35:03;;;;;;;19.92;6.22;;;14.20;87.60;;;;;;5032183;28;20045;-84
2021/12/30 11:37:31;;;;;;;19.38;4.68;;;14.20;87.60;;;;;;5032484;28;20414;-83
2021/12/30 11:40:02;;;;;;;26.48;5.95;;;14.20;87.50;;;;;;5032668;28;20041;-84
2021/12/30 11:42:40;;;;;;;21.35;5.13;;;14.20;87.50;;;;;;5032747;28;20060;-84
2021/12/30 11:45:24;;;;;;;17.30;4.88;;;14.10;87.40;;;;;;5028061;28;20060;-83
2021/12/30 11:47:53;;;;;;;18.63;4.47;;;14.20;87.40;;;;;;5033314;28;20088;-83
2021/12/30 11:50:30;;;;;;;19.63;4.80;;;14.20;87.40;;;;;;5032307;28;20446;-83
2021/12/30 11:53:09;;;;;;;20.88;4.90;;;14.20;87.40;;;;;;5032502;28;20041;-83
2021/12/30 11:55:52;;;;;;;23.90;5.53;;;14.20;87.40;;;;;;5031921;28;20136;-83
2021/12/30 11:58:28;;;;;;;15.73;4.70;;;14.20;87.30;;;;;;5032305;28;20045;-83
2021/12/30 12:00:56;;;;;;;32.10;6.05;;;14.20;87.30;;;;;;5031031;28;20425;-83
2021/12/30 12:03:27;;;;;;;17.75;4.60;;;14.20;87.30;;;;;;5031505;28;20061;-84
2021/12/30 12:05:54;;;;;;;18.77;4.07;;;14.20;87.30;;;;;;5029579;28;20422;-83
2021/12/30 12:08:27;;;;;;;19.98;4.90;;;14.20;87.30;;;;;;5032318;28;20049;-83
2021/12/30 12:11:12;;;;;;;20.17;4.85;;;14.20;87.30;;;;;;5032251;28;20052;-84
2021/12/30 12:13:40;;;;;;;18.73;4.57;;;14.20;87.30;;;;;;5032331;28;20060;-83
2021/12/30 12:16:08;;;;;;;22.00;4.53;;;14.20;87.30;;;;;;5032121;28;20045;-83
2021/12/30 12:18:35;;;;;;;16.85;5.00;;;14.20;87.30;;;;;;5031884;28;22534;-83
2021/12/30 12:21:06;;;;;;;13.57;4.70;;;14.30;87.30;;;;;;5030241;28;20045;-83
2021/12/30 12:23:39;;;;;;;19.50;4.50;;;14.30;87.30;;;;;;5031822;28;20053;-83
2021/12/30 12:26:14;;;;;;;23.52;4.55;;;14.30;87.30;;;;;;5032075;28;20510;-83
2021/12/30 12:28:42;;;;;;;18.23;5.05;;;14.30;87.30;;;;;;5032144;28;20037;-83
2021/12/30 12:31:11;;;;;;;15.73;4.47;;;14.20;87.30;;;;;;5031704;28;20050;-84
2021/12/30 12:33:41;;;;;;;21.83;5.30;;;14.30;87.30;;;;;;5035674;28;20041;-84
2021/12/30 12:36:16;;;;;;;13.98;4.45;;;14.30;87.30;;;;;;5030634;28;20053;-84
2021/12/30 12:38:50;;;;;;;21.25;4.95;;;14.30;87.30;;;;;;5035329;28;20045;-84
2021/12/30 12:41:24;;;;;;;16.58;4.78;;;14.30;87.30;;;;;;5035608;28;20052;-84
2021/12/30 12:44:06;;;;;;;16.20;4.90;;;14.30;87.30;;;;;;5035477;28;20041;-83
2021/12/30 12:46:49;;;;;;;16.60;5.28;;;14.30;87.30;;;;;;5034965;28;20433;-83
2021/12/30 12:49:36;;;;;;;24.65;7.03;;;14.30;87.30;;;;;;5035498;28;20048;-83
2021/12/30 12:52:06;;;;;;;41.60;19.80;;;14.30;87.30;;;;;;5034977;28;20053;-83
2021/12/30 12:54:38;;;;;;;29.65;10.95;;;14.30;87.30;;;;;;5034953;28;20052;-82